Aérodrome :
LOGIN :

S'inscrire | Disclaimer

   EN    FR    IT 

 










Légende :    VFR   VFR Marginal   IFR   IFR Intensif   IFR Très Intensif
Visi : 
Plafond : 
>= 8 km
>= 3000ft
5 à 8 km
1000 à 3000 ft
1500m à 5 km
500 à 1000 ft
800 à 1500m
200 à 500 ft
< 800m
< 200 ft
Symboles :   Orages  Brouillard  Fortes neiges  Fortes précipitations  Vent > 20 kt
SIGMETs :   Divers  Orages  Givrage  Turbulence  Onde Orograph.  Cendres Volcan.







- Altitude de l'aérodrome : 302 ft
- Code IATA : CGN


EDDK - Cologne Bonn

DERNIER METAR :
  • 242020Z 35004KT 9999 FEW024 BKN038 15/11 Q1022 NOSIG

METARs EXPIRÉS :
  • 241950Z 35004KT 9999 FEW023 BKN036 15/11 Q1022 NOSIG
  • 241920Z 01007KT 330V040 9999 FEW032 BKN036 15/11 Q1022 NOSIG
  • 241850Z 35006KT 320V020 9999 FEW032 BKN035 16/11 Q1022 NOSIG
  • 241820Z 36008KT 330V030 9999 SCT030 BKN035 16/11 Q1022 NOSIG
  • 241750Z 36010KT 9999 SCT033 BKN038 17/10 Q1022 NOSIG

TAF TAF EDDK
Valide du 24 à 18h jusqu'au 26 à 00h UTC


241700Z 2418/2524 34008KT 9999 BKN040
BECMG 2500/2503 BKN012
BECMG 2507/2510 BKN030
Pas de NOTAMs connus pour ce terrain.



MET'MAP, la Météo Aéronautique d'un coup d'oeil ! - Copyright ORBIFLY Décembre 2007 - Disclaimer

ORBIFLY MET'MAP TEAM :

Programmation & Développement : Alexandra Zaïnal
Conception & Développement : Baudouin d'Aumeries
Co-Programmation & Développement : Marc-Olivier Méhu
Soutien technique & logistique : Manuel Goepfert

Contact : metmap@orbifly.com




SOURCES & CREDITS :

   NOAA